sensor_id;sensor_type;location;lat;lon;timestamp;P1;durP1;ratioP1;P2;durP2;ratioP2
26512;SDS011;14186;53.822;10.152;2023-03-31T00:04:32;18.55;;;3.70;;
26512;SDS011;14186;53.822;10.152;2023-03-31T00:09:32;22.53;;;3.77;;
26512;SDS011;14186;53.822;10.152;2023-03-31T00:14:33;26.58;;;5.05;;
26512;SDS011;14186;53.822;10.152;2023-03-31T00:19:34;19.35;;;3.70;;
26512;SDS011;14186;53.822;10.152;2023-03-31T00:24:34;22.05;;;5.95;;
26512;SDS011;14186;53.822;10.152;2023-03-31T00:29:36;24.10;;;4.38;;
26512;SDS011;14186;53.822;10.152;2023-03-31T00:34:36;24.00;;;5.03;;
26512;SDS011;14186;53.822;10.152;2023-03-31T00:39:36;19.83;;;3.90;;
26512;SDS011;14186;53.822;10.152;2023-03-31T00:44:40;16.17;;;4.25;;
26512;SDS011;14186;53.822;10.152;2023-03-31T00:50:00;28.77;;;6.10;;
26512;SDS011;14186;53.822;10.152;2023-03-31T00:55:01;20.23;;;4.90;;
26512;SDS011;14186;53.822;10.152;2023-03-31T01:00:10;20.85;;;5.45;;
26512;SDS011;14186;53.822;10.152;2023-03-31T01:05:10;28.27;;;5.60;;
26512;SDS011;14186;53.822;10.152;2023-03-31T01:10:11;23.85;;;5.63;;
26512;SDS011;14186;53.822;10.152;2023-03-31T01:15:13;23.35;;;5.63;;
26512;SDS011;14186;53.822;10.152;2023-03-31T01:20:15;24.08;;;4.80;;
26512;SDS011;14186;53.822;10.152;2023-03-31T01:30:44;32.08;;;4.45;;
26512;SDS011;14186;53.822;10.152;2023-03-31T01:36:07;22.08;;;4.72;;
26512;SDS011;14186;53.822;10.152;2023-03-31T01:41:24;23.67;;;4.90;;
26512;SDS011;14186;53.822;10.152;2023-03-31T01:46:29;17.67;;;3.42;;
26512;SDS011;14186;53.822;10.152;2023-03-31T01:51:31;16.98;;;3.47;;
26512;SDS011;14186;53.822;10.152;2023-03-31T01:56:34;16.05;;;3.53;;
26512;SDS011;14186;53.822;10.152;2023-03-31T02:01:36;16.65;;;3.20;;
26512;SDS011;14186;53.822;10.152;2023-03-31T02:06:40;14.68;;;2.95;;
26512;SDS011;14186;53.822;10.152;2023-03-31T02:11:43;13.38;;;2.90;;
26512;SDS011;14186;53.822;10.152;2023-03-31T02:16:44;19.08;;;4.50;;
26512;SDS011;14186;53.822;10.152;2023-03-31T02:21:46;16.85;;;2.88;;
26512;SDS011;14186;53.822;10.152;2023-03-31T02:26:50;27.48;;;4.88;;
26512;SDS011;14186;53.822;10.152;2023-03-31T02:31:54;25.30;;;3.60;;
26512;SDS011;14186;53.822;10.152;2023-03-31T02:36:55;23.92;;;3.97;;
26512;SDS011;14186;53.822;10.152;2023-03-31T02:41:57;19.30;;;4.22;;
26512;SDS011;14186;53.822;10.152;2023-03-31T02:46:57;19.83;;;3.17;;
26512;SDS011;14186;53.822;10.152;2023-03-31T02:57:22;19.20;;;3.90;;
26512;SDS011;14186;53.822;10.152;2023-03-31T03:02:26;27.42;;;3.95;;
26512;SDS011;14186;53.822;10.152;2023-03-31T03:07:30;19.45;;;3.05;;
26512;SDS011;14186;53.822;10.152;2023-03-31T03:12:37;19.58;;;3.65;;
26512;SDS011;14186;53.822;10.152;2023-03-31T03:17:39;17.23;;;2.60;;
26512;SDS011;14186;53.822;10.152;2023-03-31T03:22:41;13.20;;;2.33;;
26512;SDS011;14186;53.822;10.152;2023-03-31T03:27:43;19.00;;;2.92;;
26512;SDS011;14186;53.822;10.152;2023-03-31T03:32:43;20.38;;;3.17;;
26512;SDS011;14186;53.822;10.152;2023-03-31T03:37:43;14.30;;;3.05;;
26512;SDS011;14186;53.822;10.152;2023-03-31T03:42:44;14.90;;;2.90;;
26512;SDS011;14186;53.822;10.152;2023-03-31T03:47:45;17.10;;;4.30;;
26512;SDS011;14186;53.822;10.152;2023-03-31T03:52:45;21.70;;;4.75;;
26512;SDS011;14186;53.822;10.152;2023-03-31T03:57:46;19.85;;;4.05;;
26512;SDS011;14186;53.822;10.152;2023-03-31T04:02:47;20.73;;;4.15;;
26512;SDS011;14186;53.822;10.152;2023-03-31T04:07:47;20.60;;;3.80;;
26512;SDS011;14186;53.822;10.152;2023-03-31T04:12:49;12.35;;;3.60;;
26512;SDS011;14186;53.822;10.152;2023-03-31T04:17:49;20.60;;;4.80;;
26512;SDS011;14186;53.822;10.152;2023-03-31T04:22:49;15.23;;;4.32;;
26512;SDS011;14186;53.822;10.152;2023-03-31T04:27:51;16.20;;;4.70;;
26512;SDS011;14186;53.822;10.152;2023-03-31T04:32:52;19.95;;;5.47;;
26512;SDS011;14186;53.822;10.152;2023-03-31T04:37:53;19.90;;;5.25;;
26512;SDS011;14186;53.822;10.152;2023-03-31T04:42:54;12.82;;;4.95;;
26512;SDS011;14186;53.822;10.152;2023-03-31T04:47:55;11.63;;;4.97;;
26512;SDS011;14186;53.822;10.152;2023-03-31T04:52:55;14.55;;;4.78;;
26512;SDS011;14186;53.822;10.152;2023-03-31T04:57:56;16.58;;;5.40;;
26512;SDS011;14186;53.822;10.152;2023-03-31T05:02:58;18.70;;;6.22;;
26512;SDS011;14186;53.822;10.152;2023-03-31T05:07:58;17.17;;;6.22;;
26512;SDS011;14186;53.822;10.152;2023-03-31T05:12:59;19.70;;;6.07;;
26512;SDS011;14186;53.822;10.152;2023-03-31T05:18:00;16.90;;;5.53;;
26512;SDS011;14186;53.822;10.152;2023-03-31T05:23:00;16.15;;;6.30;;
26512;SDS011;14186;53.822;10.152;2023-03-31T05:28:01;14.07;;;7.10;;
26512;SDS011;14186;53.822;10.152;2023-03-31T05:33:02;14.27;;;5.93;;
26512;SDS011;14186;53.822;10.152;2023-03-31T05:38:02;16.27;;;6.00;;
26512;SDS011;14186;53.822;10.152;2023-03-31T05:43:04;13.50;;;5.90;;
26512;SDS011;14186;53.822;10.152;2023-03-31T05:48:04;22.90;;;6.75;;
26512;SDS011;14186;53.822;10.152;2023-03-31T05:53:05;16.73;;;5.63;;
26512;SDS011;14186;53.822;10.152;2023-03-31T05:58:06;18.67;;;6.35;;
26512;SDS011;14186;53.822;10.152;2023-03-31T06:03:06;25.35;;;5.80;;
26512;SDS011;14186;53.822;10.152;2023-03-31T06:08:07;15.70;;;5.70;;
26512;SDS011;14186;53.822;10.152;2023-03-31T06:13:08;11.68;;;6.00;;
26512;SDS011;14186;53.822;10.152;2023-03-31T06:18:09;16.48;;;5.70;;
26512;SDS011;14186;53.822;10.152;2023-03-31T06:23:09;16.23;;;6.15;;
26512;SDS011;14186;53.822;10.152;2023-03-31T06:28:10;19.60;;;6.30;;
26512;SDS011;14186;53.822;10.152;2023-03-31T06:33:10;15.20;;;6.35;;
26512;SDS011;14186;53.822;10.152;2023-03-31T06:38:11;17.48;;;6.47;;
26512;SDS011;14186;53.822;10.152;2023-03-31T06:43:12;16.23;;;7.45;;
26512;SDS011;14186;53.822;10.152;2023-03-31T06:48:12;19.92;;;6.97;;
26512;SDS011;14186;53.822;10.152;2023-03-31T06:53:13;16.30;;;6.78;;
26512;SDS011;14186;53.822;10.152;2023-03-31T06:58:14;14.80;;;6.47;;
26512;SDS011;14186;53.822;10.152;2023-03-31T07:03:15;12.38;;;5.63;;
26512;SDS011;14186;53.822;10.152;2023-03-31T07:08:15;12.15;;;6.13;;
26512;SDS011;14186;53.822;10.152;2023-03-31T07:13:17;14.02;;;5.15;;
26512;SDS011;14186;53.822;10.152;2023-03-31T07:18:17;13.23;;;6.03;;
26512;SDS011;14186;53.822;10.152;2023-03-31T07:23:18;11.00;;;4.93;;
26512;SDS011;14186;53.822;10.152;2023-03-31T07:28:20;12.18;;;4.97;;
26512;SDS011;14186;53.822;10.152;2023-03-31T07:33:20;13.95;;;5.38;;
26512;SDS011;14186;53.822;10.152;2023-03-31T07:38:20;15.75;;;6.28;;
26512;SDS011;14186;53.822;10.152;2023-03-31T07:43:22;18.98;;;5.97;;
26512;SDS011;14186;53.822;10.152;2023-03-31T07:48:22;12.45;;;4.43;;
26512;SDS011;14186;53.822;10.152;2023-03-31T07:53:22;13.95;;;5.05;;
26512;SDS011;14186;53.822;10.152;2023-03-31T07:58:24;15.75;;;5.05;;
26512;SDS011;14186;53.822;10.152;2023-03-31T08:03:24;20.20;;;5.50;;
26512;SDS011;14186;53.822;10.152;2023-03-31T08:08:24;13.95;;;4.60;;
26512;SDS011;14186;53.822;10.152;2023-03-31T08:13:26;12.82;;;5.07;;
26512;SDS011;14186;53.822;10.152;2023-03-31T08:18:26;10.35;;;4.30;;
26512;SDS011;14186;53.822;10.152;2023-03-31T08:23:26;15.23;;;4.78;;
26512;SDS011;14186;53.822;10.152;2023-03-31T08:28:28;16.35;;;4.88;;
26512;SDS011;14186;53.822;10.152;2023-03-31T08:33:28;10.98;;;5.40;;
26512;SDS011;14186;53.822;10.152;2023-03-31T08:38:28;13.23;;;5.15;;
26512;SDS011;14186;53.822;10.152;2023-03-31T08:43:31;10.82;;;5.32;;
26512;SDS011;14186;53.822;10.152;2023-03-31T08:48:33;13.95;;;4.93;;
26512;SDS011;14186;53.822;10.152;2023-03-31T08:53:36;13.15;;;5.07;;
26512;SDS011;14186;53.822;10.152;2023-03-31T08:58:40;11.23;;;4.40;;
26512;SDS011;14186;53.822;10.152;2023-03-31T09:03:42;9.00;;;4.38;;
26512;SDS011;14186;53.822;10.152;2023-03-31T09:08:46;9.50;;;3.38;;
26512;SDS011;14186;53.822;10.152;2023-03-31T09:13:55;11.30;;;4.80;;
26512;SDS011;14186;53.822;10.152;2023-03-31T09:18:59;8.60;;;4.00;;
26512;SDS011;14186;53.822;10.152;2023-03-31T09:24:02;9.90;;;4.32;;
26512;SDS011;14186;53.822;10.152;2023-03-31T09:29:06;7.03;;;3.10;;
26512;SDS011;14186;53.822;10.152;2023-03-31T09:34:12;7.47;;;2.78;;
26512;SDS011;14186;53.822;10.152;2023-03-31T09:39:12;6.28;;;2.63;;
26512;SDS011;14186;53.822;10.152;2023-03-31T09:44:19;10.25;;;3.50;;
26512;SDS011;14186;53.822;10.152;2023-03-31T09:49:22;10.73;;;4.10;;
26512;SDS011;14186;53.822;10.152;2023-03-31T09:54:23;10.18;;;4.47;;
26512;SDS011;14186;53.822;10.152;2023-03-31T09:59:30;10.50;;;5.13;;
26512;SDS011;14186;53.822;10.152;2023-03-31T10:04:31;12.93;;;5.18;;
26512;SDS011;14186;53.822;10.152;2023-03-31T10:09:32;9.40;;;5.35;;
26512;SDS011;14186;53.822;10.152;2023-03-31T10:14:37;12.23;;;6.25;;
26512;SDS011;14186;53.822;10.152;2023-03-31T10:19:39;7.13;;;4.60;;
26512;SDS011;14186;53.822;10.152;2023-03-31T10:24:46;4.90;;;3.17;;
26512;SDS011;14186;53.822;10.152;2023-03-31T10:29:48;7.03;;;3.78;;
26512;SDS011;14186;53.822;10.152;2023-03-31T10:34:50;6.28;;;2.65;;
26512;SDS011;14186;53.822;10.152;2023-03-31T10:39:55;4.93;;;2.23;;
26512;SDS011;14186;53.822;10.152;2023-03-31T10:45:10;3.90;;;1.70;;
26512;SDS011;14186;53.822;10.152;2023-03-31T10:50:13;5.32;;;1.85;;
26512;SDS011;14186;53.822;10.152;2023-03-31T10:55:13;4.00;;;1.88;;
26512;SDS011;14186;53.822;10.152;2023-03-31T11:00:20;3.92;;;1.85;;
26512;SDS011;14186;53.822;10.152;2023-03-31T11:05:25;3.85;;;1.60;;
26512;SDS011;14186;53.822;10.152;2023-03-31T11:10:33;5.05;;;1.88;;
26512;SDS011;14186;53.822;10.152;2023-03-31T11:15:38;3.45;;;1.80;;
26512;SDS011;14186;53.822;10.152;2023-03-31T11:20:40;4.60;;;2.13;;
26512;SDS011;14186;53.822;10.152;2023-03-31T11:25:49;4.75;;;1.40;;
26512;SDS011;14186;53.822;10.152;2023-03-31T11:30:54;5.90;;;2.00;;
26512;SDS011;14186;53.822;10.152;2023-03-31T11:36:00;5.38;;;1.83;;
26512;SDS011;14186;53.822;10.152;2023-03-31T11:41:03;3.10;;;1.90;;
26512;SDS011;14186;53.822;10.152;2023-03-31T11:46:07;4.65;;;1.90;;
26512;SDS011;14186;53.822;10.152;2023-03-31T11:51:10;2.60;;;1.70;;
26512;SDS011;14186;53.822;10.152;2023-03-31T11:56:13;3.17;;;2.20;;
26512;SDS011;14186;53.822;10.152;2023-03-31T12:01:16;4.60;;;1.77;;
26512;SDS011;14186;53.822;10.152;2023-03-31T12:11:21;5.95;;;1.33;;
26512;SDS011;14186;53.822;10.152;2023-03-31T12:16:26;2.95;;;1.55;;
26512;SDS011;14186;53.822;10.152;2023-03-31T12:21:31;7.78;;;2.33;;
26512;SDS011;14186;53.822;10.152;2023-03-31T12:26:35;2.63;;;0.90;;
26512;SDS011;14186;53.822;10.152;2023-03-31T12:31:40;4.40;;;0.98;;
26512;SDS011;14186;53.822;10.152;2023-03-31T12:36:45;2.85;;;0.90;;
26512;SDS011;14186;53.822;10.152;2023-03-31T12:41:54;3.78;;;1.23;;
26512;SDS011;14186;53.822;10.152;2023-03-31T12:47:21;3.22;;;1.10;;
26512;SDS011;14186;53.822;10.152;2023-03-31T12:52:27;2.58;;;0.80;;
26512;SDS011;14186;53.822;10.152;2023-03-31T12:57:32;2.05;;;0.90;;
26512;SDS011;14186;53.822;10.152;2023-03-31T13:02:33;3.08;;;0.70;;
26512;SDS011;14186;53.822;10.152;2023-03-31T13:07:38;2.05;;;0.98;;
26512;SDS011;14186;53.822;10.152;2023-03-31T13:12:38;2.33;;;0.55;;
26512;SDS011;14186;53.822;10.152;2023-03-31T13:17:40;2.42;;;1.15;;
26512;SDS011;14186;53.822;10.152;2023-03-31T13:22:41;3.65;;;1.85;;
26512;SDS011;14186;53.822;10.152;2023-03-31T13:27:47;3.75;;;0.90;;
26512;SDS011;14186;53.822;10.152;2023-03-31T13:37:55;3.78;;;1.10;;
26512;SDS011;14186;53.822;10.152;2023-03-31T13:43:07;2.35;;;1.05;;
26512;SDS011;14186;53.822;10.152;2023-03-31T13:48:13;3.28;;;1.30;;
26512;SDS011;14186;53.822;10.152;2023-03-31T13:53:27;5.25;;;2.25;;
26512;SDS011;14186;53.822;10.152;2023-03-31T13:58:33;3.28;;;1.75;;
26512;SDS011;14186;53.822;10.152;2023-03-31T14:03:44;3.38;;;1.40;;
26512;SDS011;14186;53.822;10.152;2023-03-31T14:08:49;3.25;;;1.50;;
26512;SDS011;14186;53.822;10.152;2023-03-31T14:13:59;4.32;;;1.85;;
26512;SDS011;14186;53.822;10.152;2023-03-31T14:19:12;4.15;;;1.80;;
26512;SDS011;14186;53.822;10.152;2023-03-31T14:24:21;4.32;;;2.28;;
26512;SDS011;14186;53.822;10.152;2023-03-31T14:29:26;6.78;;;2.53;;
26512;SDS011;14186;53.822;10.152;2023-03-31T14:34:34;6.32;;;2.10;;
26512;SDS011;14186;53.822;10.152;2023-03-31T14:39:40;3.08;;;1.52;;
26512;SDS011;14186;53.822;10.152;2023-03-31T14:44:41;4.28;;;1.83;;
26512;SDS011;14186;53.822;10.152;2023-03-31T14:49:42;3.38;;;1.80;;
26512;SDS011;14186;53.822;10.152;2023-03-31T14:54:44;3.20;;;1.60;;
26512;SDS011;14186;53.822;10.152;2023-03-31T14:59:45;5.13;;;2.00;;
26512;SDS011;14186;53.822;10.152;2023-03-31T15:04:46;3.60;;;2.25;;
26512;SDS011;14186;53.822;10.152;2023-03-31T15:09:49;5.10;;;1.95;;
26512;SDS011;14186;53.822;10.152;2023-03-31T15:14:50;4.13;;;2.40;;
26512;SDS011;14186;53.822;10.152;2023-03-31T15:19:54;7.32;;;2.63;;
26512;SDS011;14186;53.822;10.152;2023-03-31T15:24:56;7.13;;;2.83;;
26512;SDS011;14186;53.822;10.152;2023-03-31T15:29:57;11.38;;;5.13;;
26512;SDS011;14186;53.822;10.152;2023-03-31T15:34:58;11.52;;;5.25;;
26512;SDS011;14186;53.822;10.152;2023-03-31T15:40:00;11.93;;;5.03;;
26512;SDS011;14186;53.822;10.152;2023-03-31T15:45:15;6.57;;;3.53;;
26512;SDS011;14186;53.822;10.152;2023-03-31T15:50:23;6.53;;;3.00;;
26512;SDS011;14186;53.822;10.152;2023-03-31T15:55:29;4.53;;;2.67;;
26512;SDS011;14186;53.822;10.152;2023-03-31T16:00:39;5.65;;;2.95;;
26512;SDS011;14186;53.822;10.152;2023-03-31T16:05:40;5.78;;;2.90;;
26512;SDS011;14186;53.822;10.152;2023-03-31T16:10:43;5.57;;;2.88;;
26512;SDS011;14186;53.822;10.152;2023-03-31T16:15:45;6.78;;;2.88;;
26512;SDS011;14186;53.822;10.152;2023-03-31T16:20:49;7.10;;;3.88;;
26512;SDS011;14186;53.822;10.152;2023-03-31T16:25:52;5.57;;;3.20;;
26512;SDS011;14186;53.822;10.152;2023-03-31T16:30:52;8.15;;;3.17;;
26512;SDS011;14186;53.822;10.152;2023-03-31T16:35:53;6.63;;;2.72;;
26512;SDS011;14186;53.822;10.152;2023-03-31T16:40:55;13.05;;;4.65;;
26512;SDS011;14186;53.822;10.152;2023-03-31T16:45:56;6.30;;;2.03;;
26512;SDS011;14186;53.822;10.152;2023-03-31T16:50:57;3.38;;;1.98;;
26512;SDS011;14186;53.822;10.152;2023-03-31T16:55:58;3.13;;;2.03;;
26512;SDS011;14186;53.822;10.152;2023-03-31T17:00:59;3.65;;;2.42;;
26512;SDS011;14186;53.822;10.152;2023-03-31T17:06:03;3.90;;;2.72;;
26512;SDS011;14186;53.822;10.152;2023-03-31T17:11:06;6.63;;;2.65;;
26512;SDS011;14186;53.822;10.152;2023-03-31T17:16:07;5.22;;;3.33;;
26512;SDS011;14186;53.822;10.152;2023-03-31T17:21:08;4.28;;;2.70;;
26512;SDS011;14186;53.822;10.152;2023-03-31T17:26:10;4.50;;;3.10;;
26512;SDS011;14186;53.822;10.152;2023-03-31T17:31:10;8.93;;;5.43;;
26512;SDS011;14186;53.822;10.152;2023-03-31T17:36:11;6.05;;;4.40;;
26512;SDS011;14186;53.822;10.152;2023-03-31T17:41:12;7.75;;;5.03;;
26512;SDS011;14186;53.822;10.152;2023-03-31T17:46:13;6.32;;;4.13;;
26512;SDS011;14186;53.822;10.152;2023-03-31T17:51:13;6.68;;;4.20;;
26512;SDS011;14186;53.822;10.152;2023-03-31T17:56:15;7.03;;;4.38;;
26512;SDS011;14186;53.822;10.152;2023-03-31T18:01:16;7.85;;;4.75;;
26512;SDS011;14186;53.822;10.152;2023-03-31T18:06:16;6.25;;;4.30;;
26512;SDS011;14186;53.822;10.152;2023-03-31T18:11:18;8.55;;;4.63;;
26512;SDS011;14186;53.822;10.152;2023-03-31T18:16:18;6.28;;;4.05;;
26512;SDS011;14186;53.822;10.152;2023-03-31T18:21:18;9.95;;;5.28;;
26512;SDS011;14186;53.822;10.152;2023-03-31T18:26:20;8.73;;;5.93;;
26512;SDS011;14186;53.822;10.152;2023-03-31T18:31:20;10.15;;;6.00;;
26512;SDS011;14186;53.822;10.152;2023-03-31T18:36:21;9.02;;;6.25;;
26512;SDS011;14186;53.822;10.152;2023-03-31T18:41:22;8.68;;;5.60;;
26512;SDS011;14186;53.822;10.152;2023-03-31T18:46:23;10.63;;;6.90;;
26512;SDS011;14186;53.822;10.152;2023-03-31T18:51:23;9.20;;;6.07;;
26512;SDS011;14186;53.822;10.152;2023-03-31T18:56:24;8.20;;;5.05;;
26512;SDS011;14186;53.822;10.152;2023-03-31T19:01:25;8.70;;;5.80;;
26512;SDS011;14186;53.822;10.152;2023-03-31T19:06:25;8.40;;;5.65;;
26512;SDS011;14186;53.822;10.152;2023-03-31T19:11:26;10.98;;;5.80;;
26512;SDS011;14186;53.822;10.152;2023-03-31T19:16:27;8.40;;;5.57;;
26512;SDS011;14186;53.822;10.152;2023-03-31T19:21:27;8.52;;;5.80;;
26512;SDS011;14186;53.822;10.152;2023-03-31T19:26:28;12.32;;;6.32;;
26512;SDS011;14186;53.822;10.152;2023-03-31T19:31:29;9.95;;;5.45;;
26512;SDS011;14186;53.822;10.152;2023-03-31T19:36:29;9.20;;;5.60;;
26512;SDS011;14186;53.822;10.152;2023-03-31T19:41:30;8.98;;;5.72;;
26512;SDS011;14186;53.822;10.152;2023-03-31T19:46:31;11.80;;;5.70;;
26512;SDS011;14186;53.822;10.152;2023-03-31T19:51:31;8.40;;;5.93;;
26512;SDS011;14186;53.822;10.152;2023-03-31T19:56:32;8.95;;;5.22;;
26512;SDS011;14186;53.822;10.152;2023-03-31T20:01:33;10.25;;;6.00;;
26512;SDS011;14186;53.822;10.152;2023-03-31T20:06:33;7.03;;;4.50;;
26512;SDS011;14186;53.822;10.152;2023-03-31T20:11:35;8.55;;;4.57;;
26512;SDS011;14186;53.822;10.152;2023-03-31T20:16:35;7.95;;;4.70;;
26512;SDS011;14186;53.822;10.152;2023-03-31T20:21:36;9.40;;;4.93;;
26512;SDS011;14186;53.822;10.152;2023-03-31T20:26:37;9.13;;;5.07;;
26512;SDS011;14186;53.822;10.152;2023-03-31T20:31:38;10.82;;;5.57;;
26512;SDS011;14186;53.822;10.152;2023-03-31T20:36:39;9.10;;;4.85;;
26512;SDS011;14186;53.822;10.152;2023-03-31T20:41:41;10.90;;;4.80;;
26512;SDS011;14186;53.822;10.152;2023-03-31T20:46:41;9.65;;;4.75;;
26512;SDS011;14186;53.822;10.152;2023-03-31T20:51:42;8.43;;;5.07;;
26512;SDS011;14186;53.822;10.152;2023-03-31T20:56:43;8.93;;;5.45;;
26512;SDS011;14186;53.822;10.152;2023-03-31T21:01:44;6.57;;;3.95;;
26512;SDS011;14186;53.822;10.152;2023-03-31T21:06:44;8.05;;;4.95;;
26512;SDS011;14186;53.822;10.152;2023-03-31T21:11:46;7.35;;;4.30;;
26512;SDS011;14186;53.822;10.152;2023-03-31T21:16:46;8.73;;;5.10;;
26512;SDS011;14186;53.822;10.152;2023-03-31T21:21:47;8.02;;;4.90;;
26512;SDS011;14186;53.822;10.152;2023-03-31T21:26:48;6.82;;;4.85;;
26512;SDS011;14186;53.822;10.152;2023-03-31T21:31:48;9.82;;;4.95;;
26512;SDS011;14186;53.822;10.152;2023-03-31T21:36:48;8.15;;;4.68;;
26512;SDS011;14186;53.822;10.152;2023-03-31T21:41:50;7.10;;;4.60;;
26512;SDS011;14186;53.822;10.152;2023-03-31T21:46:50;6.32;;;4.38;;
26512;SDS011;14186;53.822;10.152;2023-03-31T21:51:50;8.07;;;5.43;;
26512;SDS011;14186;53.822;10.152;2023-03-31T21:56:52;9.10;;;4.85;;
26512;SDS011;14186;53.822;10.152;2023-03-31T22:01:52;8.65;;;4.90;;
26512;SDS011;14186;53.822;10.152;2023-03-31T22:06:52;9.25;;;5.35;;
26512;SDS011;14186;53.822;10.152;2023-03-31T22:11:54;11.57;;;5.38;;
26512;SDS011;14186;53.822;10.152;2023-03-31T22:16:54;10.40;;;5.40;;
26512;SDS011;14186;53.822;10.152;2023-03-31T22:21:54;10.45;;;5.85;;
26512;SDS011;14186;53.822;10.152;2023-03-31T22:26:56;10.38;;;5.70;;
26512;SDS011;14186;53.822;10.152;2023-03-31T22:31:56;13.85;;;6.60;;
26512;SDS011;14186;53.822;10.152;2023-03-31T22:36:56;10.75;;;6.30;;
26512;SDS011;14186;53.822;10.152;2023-03-31T22:41:58;9.30;;;5.75;;
26512;SDS011;14186;53.822;10.152;2023-03-31T22:46:58;9.45;;;6.50;;
26512;SDS011;14186;53.822;10.152;2023-03-31T22:51:58;9.48;;;5.72;;
26512;SDS011;14186;53.822;10.152;2023-03-31T22:57:00;10.35;;;5.55;;
26512;SDS011;14186;53.822;10.152;2023-03-31T23:02:00;14.90;;;5.95;;
26512;SDS011;14186;53.822;10.152;2023-03-31T23:07:01;10.70;;;5.88;;
26512;SDS011;14186;53.822;10.152;2023-03-31T23:12:02;9.65;;;5.97;;
26512;SDS011;14186;53.822;10.152;2023-03-31T23:17:02;12.25;;;6.38;;
26512;SDS011;14186;53.822;10.152;2023-03-31T23:22:03;9.50;;;5.28;;
26512;SDS011;14186;53.822;10.152;2023-03-31T23:27:04;12.50;;;6.20;;
26512;SDS011;14186;53.822;10.152;2023-03-31T23:32:04;11.68;;;5.78;;
26512;SDS011;14186;53.822;10.152;2023-03-31T23:37:05;15.98;;;6.53;;
26512;SDS011;14186;53.822;10.152;2023-03-31T23:42:07;14.05;;;5.97;;
26512;SDS011;14186;53.822;10.152;2023-03-31T23:47:07;12.48;;;6.40;;
26512;SDS011;14186;53.822;10.152;2023-03-31T23:52:07;12.60;;;6.07;;
26512;SDS011;14186;53.822;10.152;2023-03-31T23:57:09;9.75;;;5.40;;
